createdAt,value
2018-01-05T00:01:47.356Z,98167.85
2018-01-05T00:04:14.851Z,98158.86
2018-01-05T00:06:42.393Z,98177.07
2018-01-05T00:09:09.923Z,98170.34
2018-01-05T00:11:37.477Z,98184.84
2018-01-05T00:14:05.006Z,98190.22
2018-01-05T00:16:32.524Z,98186.91
2018-01-05T00:19:00.882Z,98194.34
2018-01-05T00:21:28.421Z,98198.52
2018-01-05T00:23:55.921Z,98202.85
2018-01-05T00:26:23.416Z,98194.20
2018-01-05T00:28:50.909Z,98200.52
2018-01-05T00:31:18.404Z,98214.34
2018-01-05T00:33:45.889Z,98222.70
2018-01-05T00:36:13.380Z,98234.96
2018-01-05T00:38:40.872Z,98246.00
2018-01-05T00:41:08.357Z,98242.03
2018-01-05T00:43:35.867Z,98246.33
2018-01-05T00:46:03.364Z,98253.67
2018-01-05T00:48:30.832Z,98267.84
2018-01-05T00:50:58.338Z,98260.59
2018-01-05T00:53:25.862Z,98252.47
2018-01-05T00:55:53.353Z,98290.48
2018-01-05T00:58:20.857Z,98283.17
2018-01-05T01:00:48.405Z,98294.77
2018-01-05T01:03:15.907Z,98284.41
2018-01-05T01:05:43.426Z,98294.98
2018-01-05T01:08:10.947Z,98296.77
2018-01-05T01:10:38.979Z,98311.09
2018-01-05T01:13:06.496Z,98318.03
2018-01-05T01:15:34.012Z,98314.16
2018-01-05T01:18:01.515Z,98325.02
2018-01-05T01:20:29.008Z,98322.52
2018-01-05T01:22:56.544Z,98323.78
2018-01-05T01:25:24.028Z,98326.90
2018-01-05T01:27:51.513Z,98336.02
2018-01-05T01:30:19.006Z,98337.13
2018-01-05T01:32:46.492Z,98339.89
2018-01-05T01:35:14.779Z,98354.20
2018-01-05T01:37:42.292Z,98359.55
2018-01-05T01:40:09.780Z,98371.52
2018-01-05T01:42:37.303Z,98379.13
2018-01-05T01:45:04.804Z,98377.44
2018-01-05T01:47:32.299Z,98379.50
2018-01-05T01:49:59.798Z,98383.06
2018-01-05T01:52:27.281Z,98383.16
2018-01-05T01:54:54.756Z,98376.39
2018-01-05T01:57:22.270Z,98371.38
2018-01-05T01:59:51.152Z,98378.97
2018-01-05T02:02:18.646Z,98383.06
2018-01-05T02:04:46.132Z,98389.22
2018-01-05T02:07:13.637Z,98411.78
2018-01-05T02:09:41.139Z,98402.83
2018-01-05T02:12:08.640Z,98398.28
2018-01-05T02:14:36.113Z,98400.83
2018-01-05T02:17:03.618Z,98406.22
2018-01-05T02:19:31.120Z,98401.88
2018-01-05T02:21:58.611Z,98387.51
2018-01-05T02:24:26.112Z,98388.96
2018-01-05T02:26:53.588Z,98400.02
2018-01-05T02:29:21.064Z,98403.16
2018-01-05T02:31:48.586Z,98398.52
2018-01-05T02:34:16.065Z,98402.80
2018-01-05T02:36:43.585Z,98407.38
2018-01-05T02:39:11.073Z,98407.03
2018-01-05T02:41:38.557Z,98401.93
2018-01-05T02:44:06.070Z,98418.35
2018-01-05T02:46:33.583Z,98414.78
2018-01-05T02:49:01.064Z,98412.47
2018-01-05T02:51:28.567Z,98407.55
2018-01-05T02:53:56.061Z,98410.73
2018-01-05T02:56:23.585Z,98416.84
2018-01-05T02:58:56.157Z,98427.94
2018-01-05T03:01:23.654Z,98421.98
2018-01-05T03:03:51.136Z,98426.84
2018-01-05T03:06:18.651Z,98442.17
2018-01-05T03:08:46.129Z,98420.52
2018-01-05T03:11:13.604Z,98434.72
2018-01-05T03:13:41.103Z,98430.08
2018-01-05T03:16:15.516Z,98428.48
2018-01-05T03:18:43.006Z,98426.67
2018-01-05T03:21:10.503Z,98415.75
2018-01-05T03:23:38.000Z,98414.89
2018-01-05T03:26:05.495Z,98409.38
2018-01-05T03:28:32.990Z,98394.40
2018-01-05T03:31:00.484Z,98398.73
2018-01-05T03:33:27.977Z,98400.06
2018-01-05T03:35:55.461Z,98398.83
2018-01-05T03:38:22.942Z,98397.52
2018-01-05T03:40:50.425Z,98388.09
2018-01-05T03:43:17.945Z,98378.23
2018-01-05T03:45:45.420Z,98382.67
2018-01-05T03:48:13.241Z,98378.18
2018-01-05T03:50:40.732Z,98394.84
2018-01-05T03:53:08.357Z,98389.32
2018-01-05T03:55:35.848Z,98397.11
2018-01-05T03:58:03.326Z,98397.92
2018-01-05T04:00:30.855Z,98401.16
2018-01-05T04:02:58.359Z,98402.61
2018-01-05T04:05:25.854Z,98407.16
2018-01-05T04:07:53.347Z,98413.44
2018-01-05T04:10:20.821Z,98412.44
2018-01-05T04:12:48.301Z,98408.06
2018-01-05T04:15:15.793Z,98407.36
2018-01-05T04:17:43.268Z,98414.84
2018-01-05T04:20:10.757Z,98415.34
2018-01-05T04:22:38.255Z,98426.77
2018-01-05T04:25:05.737Z,98430.08
2018-01-05T04:27:33.230Z,98420.53
2018-01-05T04:30:00.762Z,98427.91
2018-01-05T04:32:28.276Z,98421.81
2018-01-05T04:34:56.609Z,98425.03
2018-01-05T04:37:24.137Z,98425.17
2018-01-05T04:39:51.638Z,98411.02
2018-01-05T04:42:19.138Z,98414.35
2018-01-05T04:44:46.653Z,98421.39
2018-01-05T04:47:14.165Z,98421.30
2018-01-05T04:49:41.667Z,98428.52
2018-01-05T04:52:09.716Z,98431.44
2018-01-05T04:54:37.217Z,98426.58
2018-01-05T04:57:04.738Z,98434.52
2018-01-05T04:59:32.236Z,98439.44
2018-01-05T05:01:59.740Z,98447.08
2018-01-05T05:04:27.240Z,98445.67
2018-01-05T05:06:54.767Z,98452.89
2018-01-05T05:09:22.244Z,98447.81
2018-01-05T05:11:49.990Z,98444.30
2018-01-05T05:14:17.468Z,98452.49
2018-01-05T05:16:44.964Z,98444.94
2018-01-05T05:19:12.462Z,98443.70
2018-01-05T05:21:39.946Z,98446.72
2018-01-05T05:24:07.424Z,98436.13
2018-01-05T05:26:34.924Z,98448.13
2018-01-05T05:29:02.441Z,98445.85
2018-01-05T05:31:29.946Z,98438.22
2018-01-05T05:33:57.432Z,98437.77
2018-01-05T05:36:24.927Z,98439.45
2018-01-05T05:38:52.436Z,98430.17
2018-01-05T05:41:19.926Z,98441.08
2018-01-05T05:43:47.935Z,98442.62
2018-01-05T05:46:15.424Z,98431.98
2018-01-05T05:48:42.903Z,98440.57
2018-01-05T05:51:10.393Z,98429.48
2018-01-05T05:53:37.897Z,98440.16
2018-01-05T05:56:05.381Z,98439.61
2018-01-05T05:58:32.886Z,98439.14
2018-01-05T06:01:00.655Z,98442.11
2018-01-05T06:03:28.157Z,98447.98
2018-01-05T06:05:55.863Z,98451.27
2018-01-05T06:08:23.356Z,98464.17
2018-01-05T06:10:50.854Z,98460.35
2018-01-05T06:13:18.324Z,98455.27
2018-01-05T06:15:45.803Z,98454.58
2018-01-05T06:18:13.304Z,98467.98
2018-01-05T06:20:40.823Z,98457.75
2018-01-05T06:23:08.316Z,98470.95
2018-01-05T06:25:35.814Z,98472.72
2018-01-05T06:28:03.579Z,98466.84
2018-01-05T06:30:31.094Z,98452.20
2018-01-05T06:32:58.610Z,98448.65
2018-01-05T06:35:26.079Z,98445.75
2018-01-05T06:37:53.568Z,98444.75
2018-01-05T06:40:22.014Z,98453.84
2018-01-05T06:42:49.495Z,98458.75
2018-01-05T06:45:16.965Z,98448.07
2018-01-05T06:47:44.470Z,98453.91
2018-01-05T06:50:11.974Z,98455.75
2018-01-05T06:52:39.503Z,98465.63
2018-01-05T06:55:07.015Z,98461.49
2018-01-05T06:57:34.489Z,98465.27
2018-01-05T07:00:01.995Z,98455.77
2018-01-05T07:02:29.480Z,98454.53
2018-01-05T07:04:56.966Z,98452.53
2018-01-05T07:07:24.471Z,98463.58
2018-01-05T07:09:51.952Z,98460.26
2018-01-05T07:12:19.471Z,98463.77
2018-01-05T07:14:46.956Z,98457.89
2018-01-05T07:17:14.457Z,98463.95
2018-01-05T07:19:41.944Z,98462.05
2018-01-05T07:22:10.062Z,98472.31
2018-01-05T07:24:37.552Z,98478.96
2018-01-05T07:27:05.036Z,98469.41
2018-01-05T07:29:32.518Z,98467.81
2018-01-05T07:32:00.702Z,98465.05
2018-01-05T07:34:28.193Z,98478.41
2018-01-05T07:36:55.702Z,98480.45
2018-01-05T07:39:23.210Z,98472.04
2018-01-05T07:41:50.703Z,98477.33
2018-01-05T07:44:18.200Z,98475.95
2018-01-05T07:46:45.701Z,98473.83
2018-01-05T07:49:13.234Z,98473.00
2018-01-05T07:51:40.740Z,98473.45
2018-01-05T07:54:08.976Z,98470.36
2018-01-05T07:56:36.463Z,98473.12
2018-01-05T07:59:03.945Z,98465.18
2018-01-05T08:01:31.444Z,98470.54
2018-01-05T08:03:58.943Z,98467.73
2018-01-05T08:06:26.439Z,98472.91
2018-01-05T08:08:53.949Z,98466.72
2018-01-05T08:11:21.426Z,98468.99
2018-01-05T08:13:48.948Z,98471.82
2018-01-05T08:16:17.425Z,98471.77
2018-01-05T08:18:45.176Z,98477.59
2018-01-05T08:21:12.675Z,98479.18
2018-01-05T08:23:40.174Z,98473.27
2018-01-05T08:26:07.693Z,98478.77
2018-01-05T08:28:35.181Z,98483.04
2018-01-05T08:31:02.693Z,98487.27
2018-01-05T08:33:30.177Z,98480.77
2018-01-05T08:35:57.669Z,98486.59
2018-01-05T08:38:25.170Z,98476.58
2018-01-05T08:40:52.651Z,98475.98
2018-01-05T08:43:20.143Z,98472.08
2018-01-05T08:45:47.647Z,98476.58
2018-01-05T08:48:15.150Z,98481.22
2018-01-05T08:50:42.675Z,98487.80
2018-01-05T08:53:10.232Z,98491.17
2018-01-05T08:55:38.572Z,98495.41
2018-01-05T08:58:06.061Z,98490.77
2018-01-05T09:00:33.541Z,98496.30
2018-01-05T09:03:01.024Z,98513.73
2018-01-05T09:05:28.505Z,98516.55
2018-01-05T09:07:55.991Z,98517.55
2018-01-05T09:10:23.507Z,98515.97
2018-01-05T09:12:51.000Z,98515.23
2018-01-05T09:15:18.496Z,98535.98
2018-01-05T09:17:45.980Z,98529.97
2018-01-05T09:20:13.509Z,98542.71
2018-01-05T09:22:41.001Z,98547.16
2018-01-05T09:25:08.508Z,98554.89
2018-01-05T09:27:36.001Z,98553.43
2018-01-05T09:30:03.476Z,98556.41
2018-01-05T09:32:30.955Z,98556.34
2018-01-05T09:34:58.480Z,98563.89
2018-01-05T09:37:25.979Z,98574.00
2018-01-05T09:39:53.471Z,98582.70
2018-01-05T09:42:20.971Z,98586.07
2018-01-05T09:44:48.484Z,98590.90
2018-01-05T09:47:15.979Z,98598.98
2018-01-05T09:49:43.459Z,98600.50
2018-01-05T09:52:10.957Z,98608.78
2018-01-05T09:54:38.444Z,98616.56
2018-01-05T09:57:05.924Z,98626.40
2018-01-05T09:59:33.409Z,98623.58
2018-01-05T10:02:00.908Z,98632.81
2018-01-05T10:04:28.407Z,98634.31
2018-01-05T10:06:55.901Z,98632.16
2018-01-05T10:09:23.385Z,98640.14
2018-01-05T10:11:50.860Z,98629.61
2018-01-05T10:14:18.337Z,98638.71
2018-01-05T10:16:45.832Z,98641.08
2018-01-05T10:19:13.321Z,98645.94
2018-01-05T10:21:40.843Z,98656.00
2018-01-05T10:24:08.325Z,98659.22
2018-01-05T10:26:35.822Z,98656.98
2018-01-05T10:29:03.310Z,98646.42
2018-01-05T10:31:30.800Z,98635.72
2018-01-05T10:33:58.294Z,98640.31
2018-01-05T10:36:25.781Z,98648.83
2018-01-05T10:38:53.283Z,98652.09
2018-01-05T10:41:20.783Z,98661.99
2018-01-05T10:43:48.308Z,98653.20
2018-01-05T10:46:15.818Z,98665.05
2018-01-05T10:48:43.315Z,98664.69
2018-01-05T10:51:10.829Z,98675.33
2018-01-05T10:53:38.312Z,98685.72
2018-01-05T10:56:05.807Z,98695.52
2018-01-05T10:58:33.313Z,98698.66
2018-01-05T11:01:00.811Z,98702.91
2018-01-05T11:03:28.296Z,98698.34
2018-01-05T11:05:55.791Z,98685.78
2018-01-05T11:08:23.264Z,98679.39
2018-01-05T11:10:50.760Z,98694.73
2018-01-05T11:13:18.283Z,98695.28
2018-01-05T11:15:45.783Z,98694.73
2018-01-05T11:18:13.291Z,98701.84
2018-01-05T11:20:40.781Z,98722.23
2018-01-05T11:23:08.305Z,98721.42
2018-01-05T11:25:35.794Z,98727.30
2018-01-05T11:28:03.289Z,98719.97
2018-01-05T11:30:30.799Z,98727.54
2018-01-05T11:32:58.294Z,98731.73
2018-01-05T11:35:25.780Z,98742.05
2018-01-05T11:37:53.279Z,98743.73
2018-01-05T11:40:20.757Z,98755.57
2018-01-05T11:42:48.261Z,98760.43
2018-01-05T11:45:15.745Z,98760.72
2018-01-05T11:47:43.289Z,98759.16
2018-01-05T11:50:10.777Z,98768.08
2018-01-05T11:52:38.265Z,98768.13
2018-01-05T11:55:05.793Z,98781.45
2018-01-05T11:57:33.287Z,98771.38
2018-01-05T12:00:00.766Z,98774.21
2018-01-05T12:02:29.138Z,98778.61
2018-01-05T12:04:56.650Z,98776.89
2018-01-05T12:07:24.150Z,98777.86
2018-01-05T12:09:51.656Z,98778.95
2018-01-05T12:12:19.160Z,98775.00
2018-01-05T12:14:46.666Z,98778.65
2018-01-05T12:17:14.189Z,98790.89
2018-01-05T12:19:41.677Z,98800.64
2018-01-05T12:22:09.197Z,98797.19
2018-01-05T12:24:37.492Z,98812.74
2018-01-05T12:27:05.026Z,98814.83
2018-01-05T12:29:32.732Z,98812.66
2018-01-05T12:32:00.212Z,98828.20
2018-01-05T12:34:27.696Z,98827.26
2018-01-05T12:36:55.193Z,98822.28
2018-01-05T12:39:22.708Z,98816.03
2018-01-05T12:41:50.248Z,98821.71
2018-01-05T12:44:17.775Z,98824.22
2018-01-05T12:46:45.255Z,98815.70
2018-01-05T12:49:12.749Z,98825.28
2018-01-05T12:51:40.245Z,98822.45
2018-01-05T12:54:07.727Z,98822.48
2018-01-05T12:56:35.260Z,98832.94
2018-01-05T12:59:02.782Z,98825.98
2018-01-05T13:01:30.300Z,98829.14
2018-01-05T13:03:57.843Z,98839.92
2018-01-05T13:06:25.321Z,98836.88
2018-01-05T13:08:52.788Z,98837.30
2018-01-05T13:11:20.284Z,98847.41
2018-01-05T13:13:47.782Z,98847.91
2018-01-05T13:16:15.286Z,98850.49
2018-01-05T13:18:42.778Z,98856.86
2018-01-05T13:21:14.131Z,98856.11
2018-01-05T13:23:41.638Z,98859.86
2018-01-05T13:26:09.227Z,98848.84
2018-01-05T13:28:37.283Z,98844.77
2018-01-05T13:31:04.998Z,98853.58
2018-01-05T13:33:32.512Z,98848.68
2018-01-05T13:36:00.042Z,98853.20
2018-01-05T13:38:28.156Z,98847.81
2018-01-05T13:40:55.620Z,98853.04
2018-01-05T13:43:23.115Z,98851.31
2018-01-05T13:45:51.355Z,98855.83
2018-01-05T13:48:18.934Z,98861.09
2018-01-05T13:50:47.435Z,98864.39
2018-01-05T13:53:15.203Z,98863.81
2018-01-05T13:55:42.763Z,98863.81
2018-01-05T13:58:10.376Z,98869.86
2018-01-05T14:00:37.925Z,98869.48
2018-01-05T14:03:06.402Z,98861.09
2018-01-05T14:05:35.635Z,98874.70
2018-01-05T14:08:03.126Z,98881.41
2018-01-05T14:10:37.459Z,98869.16
2018-01-05T14:13:05.067Z,98875.74
2018-01-05T14:15:32.563Z,98874.75
2018-01-05T14:18:00.408Z,98881.91
2018-01-05T14:20:27.880Z,98892.88
2018-01-05T14:22:58.364Z,98888.84
2018-01-05T14:25:25.872Z,98890.38
2018-01-05T14:27:53.392Z,98884.05
2018-01-05T14:30:20.895Z,98886.67
2018-01-05T14:32:48.375Z,98890.91
2018-01-05T14:35:15.879Z,98900.61
2018-01-05T14:37:44.134Z,98896.37
2018-01-05T14:40:12.711Z,98901.97
2018-01-05T14:42:43.411Z,98907.14
2018-01-05T14:45:10.895Z,98911.87
2018-01-05T14:47:38.391Z,98906.36
2018-01-05T14:50:13.080Z,98902.58
2018-01-05T14:52:40.570Z,98899.50
2018-01-05T14:55:08.317Z,98904.42
2018-01-05T14:57:35.818Z,98905.55
2018-01-05T15:00:03.310Z,98906.94
2018-01-05T15:02:30.887Z,98917.66
2018-01-05T15:04:58.985Z,98916.05
2018-01-05T15:07:26.520Z,98904.55
2018-01-05T15:09:54.000Z,98911.30
2018-01-05T15:12:21.524Z,98917.97
2018-01-05T15:14:49.501Z,98917.83
2018-01-05T15:17:17.068Z,98918.05
2018-01-05T15:19:44.661Z,98915.84
2018-01-05T15:22:12.204Z,98920.33
2018-01-05T15:24:39.735Z,98931.65
2018-01-05T15:27:07.285Z,98939.84
2018-01-05T15:29:34.765Z,98948.98
2018-01-05T15:32:02.291Z,98939.36
2018-01-05T15:34:30.507Z,98941.08
2018-01-05T15:36:58.761Z,98945.45
2018-01-05T15:39:26.244Z,98941.36
2018-01-05T15:41:54.476Z,98940.17
2018-01-05T15:44:22.033Z,98938.17
2018-01-05T15:46:49.801Z,98942.06
2018-01-05T15:49:17.284Z,98944.68
2018-01-05T15:51:44.786Z,98949.73
2018-01-05T15:54:12.450Z,98946.37
2018-01-05T15:56:39.937Z,98953.70
2018-01-05T15:59:07.504Z,98951.28
2018-01-05T16:01:35.010Z,98951.70
2018-01-05T16:04:02.546Z,98960.23
2018-01-05T16:06:30.036Z,98971.00
2018-01-05T16:08:57.589Z,98957.03
2018-01-05T16:11:25.224Z,98947.78
2018-01-05T16:13:52.735Z,98947.02
2018-01-05T16:16:20.225Z,98948.74
2018-01-05T16:18:47.735Z,98954.03
2018-01-05T16:21:15.323Z,98959.13
2018-01-05T16:23:43.155Z,98955.69
2018-01-05T16:26:10.659Z,98957.86
2018-01-05T16:28:38.175Z,98956.61
2018-01-05T16:31:05.790Z,98960.50
2018-01-05T16:33:33.467Z,98969.09
2018-01-05T16:36:01.013Z,98979.71
2018-01-05T16:38:28.736Z,98980.19
2018-01-05T16:40:56.275Z,98988.33
2018-01-05T16:43:23.775Z,98980.83
2018-01-05T16:45:51.263Z,98979.08
2018-01-05T16:48:18.748Z,98984.65
2018-01-05T16:50:46.322Z,98974.98
2018-01-05T16:53:13.854Z,98977.66
2018-01-05T16:55:41.430Z,98991.23
2018-01-05T16:58:08.928Z,99001.94
2018-01-05T17:00:36.473Z,98995.98
2018-01-05T17:03:04.135Z,98996.84
2018-01-05T17:05:31.608Z,99001.39
2018-01-05T17:07:59.116Z,98998.05
2018-01-05T17:10:26.605Z,98994.39
2018-01-05T17:12:54.085Z,99003.29
2018-01-05T17:15:21.608Z,99005.45
2018-01-05T17:17:49.089Z,98998.00
2018-01-05T17:20:16.587Z,98992.95
2018-01-05T17:22:44.104Z,99003.62
2018-01-05T17:25:11.603Z,99012.66
2018-01-05T17:27:39.135Z,99012.36
2018-01-05T17:30:06.660Z,99011.50
2018-01-05T17:32:34.153Z,99010.77
2018-01-05T17:35:01.966Z,99014.19
2018-01-05T17:37:29.455Z,99008.19
2018-01-05T17:39:56.958Z,99007.28
2018-01-05T17:42:24.463Z,99017.06
2018-01-05T17:44:52.705Z,99021.41
2018-01-05T17:47:20.203Z,99018.80
2018-01-05T17:49:47.719Z,99016.67
2018-01-05T17:52:15.209Z,99028.20
2018-01-05T17:54:42.707Z,99027.51
2018-01-05T17:57:10.216Z,99031.59
2018-01-05T17:59:37.727Z,99026.59
2018-01-05T18:02:05.688Z,99023.20
2018-01-05T18:04:33.247Z,99030.44
2018-01-05T18:07:00.744Z,99014.33
2018-01-05T18:09:31.868Z,99012.14
2018-01-05T18:11:59.358Z,99015.19
2018-01-05T18:14:26.866Z,99015.13
2018-01-05T18:16:54.373Z,99018.53
2018-01-05T18:19:21.866Z,99020.24
2018-01-05T18:21:49.363Z,99021.09
2018-01-05T18:24:16.863Z,99029.55
2018-01-05T18:26:44.381Z,99024.08
2018-01-05T18:29:11.919Z,99017.04
2018-01-05T18:31:39.452Z,99018.66
2018-01-05T18:34:06.965Z,99017.31
2018-01-05T18:36:34.477Z,99015.41
2018-01-05T18:39:01.983Z,99017.66
2018-01-05T18:41:29.474Z,99033.18
2018-01-05T18:43:56.983Z,99030.43
2018-01-05T18:46:24.516Z,99027.03
2018-01-05T18:48:52.022Z,99035.88
2018-01-05T18:51:19.512Z,99037.79
2018-01-05T18:53:47.001Z,99042.38
2018-01-05T18:56:14.511Z,99046.87
2018-01-05T18:58:41.995Z,99040.01
2018-01-05T19:01:09.496Z,99035.90
2018-01-05T19:03:37.005Z,99035.13
2018-01-05T19:06:04.516Z,99042.31
2018-01-05T19:08:32.022Z,99046.09
2018-01-05T19:10:59.541Z,99047.22
2018-01-05T19:13:27.044Z,99037.50
2018-01-05T19:15:54.673Z,99026.29
2018-01-05T19:18:22.770Z,99024.89
2018-01-05T19:20:50.273Z,99029.03
2018-01-05T19:23:17.787Z,99026.10
2018-01-05T19:25:47.051Z,99027.14
2018-01-05T19:28:14.571Z,99031.19
2018-01-05T19:30:42.077Z,99031.52
2018-01-05T19:33:09.704Z,99025.26
2018-01-05T19:35:37.235Z,99026.08
2018-01-05T19:38:04.815Z,99025.67
2018-01-05T19:40:32.312Z,99031.52
2018-01-05T19:42:59.918Z,99037.34
2018-01-05T19:45:27.403Z,99034.77
2018-01-05T19:47:54.901Z,99037.70
2018-01-05T19:50:28.842Z,99044.09
2018-01-05T19:52:56.363Z,99054.17
2018-01-05T19:55:23.918Z,99057.54
2018-01-05T19:57:51.432Z,99051.54
2018-01-05T20:00:18.952Z,99048.52
2018-01-05T20:02:49.045Z,99054.47
2018-01-05T20:05:16.567Z,99052.30
2018-01-05T20:07:44.087Z,99044.38
2018-01-05T20:10:11.595Z,99047.37
2018-01-05T20:12:39.078Z,99056.36
2018-01-05T20:15:06.597Z,99054.80
2018-01-05T20:17:34.090Z,99062.42
2018-01-05T20:20:01.585Z,99054.08
2018-01-05T20:22:29.060Z,99061.33
2018-01-05T20:24:56.587Z,99067.77
2018-01-05T20:27:24.116Z,99072.47
2018-01-05T20:29:51.596Z,99078.00
2018-01-05T20:32:19.106Z,99069.13
2018-01-05T20:34:48.367Z,99068.85
2018-01-05T20:37:16.101Z,99064.63
2018-01-05T20:39:43.717Z,99062.55
2018-01-05T20:42:11.239Z,99059.73
2018-01-05T20:44:38.791Z,99056.84
2018-01-05T20:47:06.272Z,99051.45
2018-01-05T20:49:33.774Z,99051.09
2018-01-05T20:52:01.298Z,99057.42
2018-01-05T20:54:28.824Z,99068.42
2018-01-05T20:56:57.237Z,99073.11
2018-01-05T20:59:24.717Z,99073.58
2018-01-05T21:01:52.247Z,99076.95
2018-01-05T21:04:20.477Z,99082.50
2018-01-05T21:06:47.987Z,99079.13
2018-01-05T21:09:15.505Z,99081.20
2018-01-05T21:11:43.290Z,99073.74
2018-01-05T21:14:10.839Z,99082.33
2018-01-05T21:16:39.869Z,99088.55
2018-01-05T21:19:07.396Z,99095.15
2018-01-05T21:21:34.907Z,99094.73
2018-01-05T21:24:02.428Z,99112.16
2018-01-05T21:26:29.920Z,99108.09
2018-01-05T21:28:57.440Z,99110.58
2018-01-05T21:31:26.110Z,99113.97
2018-01-05T21:33:53.600Z,99118.56
2018-01-05T21:36:21.087Z,99119.75
2018-01-05T21:38:49.079Z,99127.45
2018-01-05T21:41:16.590Z,99123.09
2018-01-05T21:43:44.113Z,99134.73
2018-01-05T21:46:11.604Z,99135.17
2018-01-05T21:48:39.115Z,99132.58
2018-01-05T21:51:06.779Z,99135.84
2018-01-05T21:53:34.388Z,99137.02
2018-01-05T21:56:01.903Z,99136.86
2018-01-05T21:58:29.396Z,99144.43
2018-01-05T22:00:56.909Z,99147.96
2018-01-05T22:03:24.565Z,99146.07
2018-01-05T22:05:52.092Z,99148.17
2018-01-05T22:08:19.585Z,99152.20
2018-01-05T22:10:47.060Z,99150.02
2018-01-05T22:13:14.600Z,99140.72
2018-01-05T22:15:42.866Z,99141.55
2018-01-05T22:18:10.456Z,99150.34
2018-01-05T22:20:37.981Z,99152.72
2018-01-05T22:23:05.504Z,99154.44
2018-01-05T22:25:33.005Z,99153.95
2018-01-05T22:28:00.508Z,99158.61
2018-01-05T22:30:28.031Z,99158.12
2018-01-05T22:32:55.576Z,99153.90
2018-01-05T22:35:23.102Z,99158.64
2018-01-05T22:37:50.711Z,99165.03
2018-01-05T22:40:18.275Z,99167.63
2018-01-05T22:42:46.248Z,99170.45
2018-01-05T22:45:13.828Z,99169.98
2018-01-05T22:47:41.368Z,99167.43
2018-01-05T22:50:08.902Z,99169.50
2018-01-05T22:52:36.403Z,99166.61
2018-01-05T22:55:03.944Z,99176.13
2018-01-05T22:57:31.528Z,99171.92
2018-01-05T22:59:59.095Z,99173.89
2018-01-05T23:02:26.598Z,99180.48
2018-01-05T23:04:54.107Z,99188.95
2018-01-05T23:07:21.617Z,99196.38
2018-01-05T23:09:49.145Z,99205.29
2018-01-05T23:12:16.673Z,99207.36
2018-01-05T23:14:44.187Z,99211.59
2018-01-05T23:17:11.675Z,99217.14
2018-01-05T23:19:39.210Z,99221.75
2018-01-05T23:22:07.084Z,99223.79
2018-01-05T23:24:34.616Z,99214.75
2018-01-05T23:27:02.117Z,99223.22
2018-01-05T23:29:29.616Z,99228.95
2018-01-05T23:31:57.176Z,99235.70
2018-01-05T23:34:24.665Z,99227.73
2018-01-05T23:36:52.166Z,99227.91
2018-01-05T23:39:19.675Z,99237.17
2018-01-05T23:41:47.164Z,99243.12
2018-01-05T23:44:14.664Z,99246.59
2018-01-05T23:46:42.167Z,99257.17
2018-01-05T23:49:09.662Z,99257.20
2018-01-05T23:51:37.169Z,99259.72
2018-01-05T23:54:04.716Z,99267.42
2018-01-05T23:56:32.235Z,99276.14
2018-01-05T23:58:59.728Z,99280.82
